sensor_id;sensor_type;location;lat;lon;timestamp;temperature;humidity
25512;DHT22;13414;44.534;18.700;2023-04-24T00:02:12;11.60;99.90
25512;DHT22;13414;44.534;18.700;2023-04-24T00:04:40;11.60;99.90
25512;DHT22;13414;44.534;18.700;2023-04-24T00:07:10;11.60;99.90
25512;DHT22;13414;44.534;18.700;2023-04-24T00:09:38;11.50;99.90
25512;DHT22;13414;44.534;18.700;2023-04-24T00:12:07;11.40;99.90
25512;DHT22;13414;44.534;18.700;2023-04-24T00:14:35;11.30;99.90
25512;DHT22;13414;44.534;18.700;2023-04-24T00:17:03;11.30;99.90
25512;DHT22;13414;44.534;18.700;2023-04-24T00:19:30;11.30;99.90
25512;DHT22;13414;44.534;18.700;2023-04-24T00:21:58;11.20;99.90
25512;DHT22;13414;44.534;18.700;2023-04-24T00:24:25;11.20;99.90
25512;DHT22;13414;44.534;18.700;2023-04-24T00:26:53;11.10;99.90
25512;DHT22;13414;44.534;18.700;2023-04-24T00:29:22;11.10;99.90
25512;DHT22;13414;44.534;18.700;2023-04-24T00:31:49;11.10;99.90
25512;DHT22;13414;44.534;18.700;2023-04-24T00:34:16;11.00;99.90
25512;DHT22;13414;44.534;18.700;2023-04-24T00:36:44;11.00;99.90
25512;DHT22;13414;44.534;18.700;2023-04-24T00:39:11;11.00;99.90
25512;DHT22;13414;44.534;18.700;2023-04-24T00:41:39;10.90;99.90
25512;DHT22;13414;44.534;18.700;2023-04-24T00:44:06;10.90;99.90
25512;DHT22;13414;44.534;18.700;2023-04-24T00:46:36;10.80;99.90
25512;DHT22;13414;44.534;18.700;2023-04-24T00:49:05;10.70;99.90
25512;DHT22;13414;44.534;18.700;2023-04-24T00:51:33;10.70;99.90
25512;DHT22;13414;44.534;18.700;2023-04-24T00:54:00;10.60;99.90
25512;DHT22;13414;44.534;18.700;2023-04-24T00:56:28;10.60;99.90
25512;DHT22;13414;44.534;18.700;2023-04-24T00:58:56;10.60;99.90
25512;DHT22;13414;44.534;18.700;2023-04-24T01:01:23;10.70;99.90
25512;DHT22;13414;44.534;18.700;2023-04-24T01:03:53;10.70;99.90
25512;DHT22;13414;44.534;18.700;2023-04-24T01:06:20;10.70;99.90
25512;DHT22;13414;44.534;18.700;2023-04-24T01:08:49;10.70;99.90
25512;DHT22;13414;44.534;18.700;2023-04-24T01:11:18;10.70;99.90
25512;DHT22;13414;44.534;18.700;2023-04-24T01:13:46;10.70;99.90
25512;DHT22;13414;44.534;18.700;2023-04-24T01:16:14;10.70;99.90
25512;DHT22;13414;44.534;18.700;2023-04-24T01:18:43;10.60;99.90
25512;DHT22;13414;44.534;18.700;2023-04-24T01:21:14;10.60;99.90
25512;DHT22;13414;44.534;18.700;2023-04-24T01:23:44;10.60;99.90
25512;DHT22;13414;44.534;18.700;2023-04-24T01:26:13;10.60;99.90
25512;DHT22;13414;44.534;18.700;2023-04-24T01:28:40;10.60;99.90
25512;DHT22;13414;44.534;18.700;2023-04-24T01:31:09;10.60;99.90
25512;DHT22;13414;44.534;18.700;2023-04-24T01:33:36;10.60;99.90
25512;DHT22;13414;44.534;18.700;2023-04-24T01:36:04;10.60;99.90
25512;DHT22;13414;44.534;18.700;2023-04-24T01:38:32;10.70;99.90
25512;DHT22;13414;44.534;18.700;2023-04-24T01:41:01;10.60;99.90
25512;DHT22;13414;44.534;18.700;2023-04-24T01:43:29;10.60;99.90
25512;DHT22;13414;44.534;18.700;2023-04-24T01:45:57;10.60;99.90
25512;DHT22;13414;44.534;18.700;2023-04-24T01:48:25;10.60;99.90
25512;DHT22;13414;44.534;18.700;2023-04-24T01:50:52;10.60;99.90
25512;DHT22;13414;44.534;18.700;2023-04-24T01:53:20;10.50;99.90
25512;DHT22;13414;44.534;18.700;2023-04-24T01:55:47;10.50;99.90
25512;DHT22;13414;44.534;18.700;2023-04-24T01:58:16;10.40;99.90
25512;DHT22;13414;44.534;18.700;2023-04-24T02:00:44;10.30;99.90
25512;DHT22;13414;44.534;18.700;2023-04-24T02:03:11;10.30;99.90
25512;DHT22;13414;44.534;18.700;2023-04-24T02:05:38;10.30;99.90
25512;DHT22;13414;44.534;18.700;2023-04-24T02:08:06;10.20;99.90
25512;DHT22;13414;44.534;18.700;2023-04-24T02:10:37;10.10;99.90
25512;DHT22;13414;44.534;18.700;2023-04-24T02:13:05;10.10;99.90
25512;DHT22;13414;44.534;18.700;2023-04-24T02:15:33;10.10;99.90
25512;DHT22;13414;44.534;18.700;2023-04-24T02:18:03;10.10;99.90
25512;DHT22;13414;44.534;18.700;2023-04-24T02:20:31;10.10;99.90
25512;DHT22;13414;44.534;18.700;2023-04-24T02:23:00;10.10;99.90
25512;DHT22;13414;44.534;18.700;2023-04-24T02:25:27;10.00;99.90
25512;DHT22;13414;44.534;18.700;2023-04-24T02:27:55;10.00;99.90
25512;DHT22;13414;44.534;18.700;2023-04-24T02:30:22;10.00;99.90
25512;DHT22;13414;44.534;18.700;2023-04-24T02:32:51;9.90;99.90
25512;DHT22;13414;44.534;18.700;2023-04-24T02:35:18;9.90;99.90
25512;DHT22;13414;44.534;18.700;2023-04-24T02:37:46;9.90;99.90
25512;DHT22;13414;44.534;18.700;2023-04-24T02:40:13;9.80;99.90
25512;DHT22;13414;44.534;18.700;2023-04-24T02:42:41;9.70;99.90
25512;DHT22;13414;44.534;18.700;2023-04-24T02:45:09;9.70;99.90
25512;DHT22;13414;44.534;18.700;2023-04-24T02:47:37;9.70;99.90
25512;DHT22;13414;44.534;18.700;2023-04-24T02:50:07;9.70;99.90
25512;DHT22;13414;44.534;18.700;2023-04-24T02:52:35;9.70;99.90
25512;DHT22;13414;44.534;18.700;2023-04-24T02:55:02;9.70;99.90
25512;DHT22;13414;44.534;18.700;2023-04-24T02:57:30;9.80;99.90
25512;DHT22;13414;44.534;18.700;2023-04-24T02:59:57;9.80;99.90
25512;DHT22;13414;44.534;18.700;2023-04-24T03:02:25;9.80;99.90
25512;DHT22;13414;44.534;18.700;2023-04-24T03:04:53;9.70;99.90
25512;DHT22;13414;44.534;18.700;2023-04-24T03:07:23;9.70;99.90
25512;DHT22;13414;44.534;18.700;2023-04-24T03:09:51;9.80;99.90
25512;DHT22;13414;44.534;18.700;2023-04-24T03:12:18;9.90;99.90
25512;DHT22;13414;44.534;18.700;2023-04-24T03:14:46;9.90;99.90
25512;DHT22;13414;44.534;18.700;2023-04-24T03:17:13;10.00;99.90
25512;DHT22;13414;44.534;18.700;2023-04-24T03:19:41;10.00;99.90
25512;DHT22;13414;44.534;18.700;2023-04-24T03:22:10;10.00;99.90
25512;DHT22;13414;44.534;18.700;2023-04-24T03:24:40;10.10;99.90
25512;DHT22;13414;44.534;18.700;2023-04-24T03:27:08;10.10;99.90
25512;DHT22;13414;44.534;18.700;2023-04-24T03:30:06;10.10;99.90
25512;DHT22;13414;44.534;18.700;2023-04-24T03:32:48;10.10;99.90
25512;DHT22;13414;44.534;18.700;2023-04-24T03:35:21;10.10;99.90
25512;DHT22;13414;44.534;18.700;2023-04-24T03:37:49;10.20;99.90
25512;DHT22;13414;44.534;18.700;2023-04-24T03:40:36;10.20;99.90
25512;DHT22;13414;44.534;18.700;2023-04-24T03:43:14;10.20;99.90
25512;DHT22;13414;44.534;18.700;2023-04-24T03:45:42;10.20;99.90
25512;DHT22;13414;44.534;18.700;2023-04-24T03:48:11;10.20;99.90
25512;DHT22;13414;44.534;18.700;2023-04-24T03:50:38;10.20;99.90
25512;DHT22;13414;44.534;18.700;2023-04-24T03:53:09;10.20;99.90
25512;DHT22;13414;44.534;18.700;2023-04-24T03:55:41;10.10;99.90
25512;DHT22;13414;44.534;18.700;2023-04-24T03:58:09;10.10;99.90
25512;DHT22;13414;44.534;18.700;2023-04-24T04:00:37;10.20;99.90
25512;DHT22;13414;44.534;18.700;2023-04-24T04:03:26;10.20;99.90
25512;DHT22;13414;44.534;18.700;2023-04-24T04:05:54;10.20;99.90
25512;DHT22;13414;44.534;18.700;2023-04-24T04:08:21;10.20;99.90
25512;DHT22;13414;44.534;18.700;2023-04-24T04:10:50;10.30;99.90
25512;DHT22;13414;44.534;18.700;2023-04-24T04:13:19;10.20;99.90
25512;DHT22;13414;44.534;18.700;2023-04-24T04:15:46;10.30;99.90
25512;DHT22;13414;44.534;18.700;2023-04-24T04:18:14;10.30;99.90
25512;DHT22;13414;44.534;18.700;2023-04-24T04:20:42;10.40;99.90
25512;DHT22;13414;44.534;18.700;2023-04-24T04:23:12;10.40;99.90
25512;DHT22;13414;44.534;18.700;2023-04-24T04:25:51;10.60;99.90
25512;DHT22;13414;44.534;18.700;2023-04-24T04:28:23;10.60;99.90
25512;DHT22;13414;44.534;18.700;2023-04-24T04:30:51;10.70;99.90
25512;DHT22;13414;44.534;18.700;2023-04-24T04:33:20;10.70;99.90
25512;DHT22;13414;44.534;18.700;2023-04-24T04:35:48;10.70;99.90
25512;DHT22;13414;44.534;18.700;2023-04-24T04:38:16;10.80;99.90
25512;DHT22;13414;44.534;18.700;2023-04-24T04:40:48;10.80;99.90
25512;DHT22;13414;44.534;18.700;2023-04-24T04:43:19;10.90;99.90
25512;DHT22;13414;44.534;18.700;2023-04-24T04:45:51;11.00;99.90
25512;DHT22;13414;44.534;18.700;2023-04-24T04:48:39;11.00;99.90
25512;DHT22;13414;44.534;18.700;2023-04-24T04:51:07;11.10;99.90
25512;DHT22;13414;44.534;18.700;2023-04-24T04:53:36;11.20;99.90
25512;DHT22;13414;44.534;18.700;2023-04-24T04:56:03;11.30;99.90
25512;DHT22;13414;44.534;18.700;2023-04-24T04:58:40;11.30;99.90
25512;DHT22;13414;44.534;18.700;2023-04-24T05:01:11;11.40;99.90
25512;DHT22;13414;44.534;18.700;2023-04-24T05:03:41;11.50;99.90
25512;DHT22;13414;44.534;18.700;2023-04-24T05:06:12;11.60;99.90
25512;DHT22;13414;44.534;18.700;2023-04-24T05:08:41;11.70;99.90
25512;DHT22;13414;44.534;18.700;2023-04-24T05:11:15;11.80;99.90
25512;DHT22;13414;44.534;18.700;2023-04-24T05:13:44;11.90;99.90
25512;DHT22;13414;44.534;18.700;2023-04-24T05:16:16;12.10;99.90
25512;DHT22;13414;44.534;18.700;2023-04-24T05:18:45;12.20;99.90
25512;DHT22;13414;44.534;18.700;2023-04-24T05:21:16;12.40;99.90
25512;DHT22;13414;44.534;18.700;2023-04-24T05:23:48;12.50;99.90
25512;DHT22;13414;44.534;18.700;2023-04-24T05:26:23;12.70;99.90
25512;DHT22;13414;44.534;18.700;2023-04-24T05:28:52;12.90;99.90
25512;DHT22;13414;44.534;18.700;2023-04-24T05:31:20;13.00;99.90
25512;DHT22;13414;44.534;18.700;2023-04-24T05:33:47;13.20;99.90
25512;DHT22;13414;44.534;18.700;2023-04-24T05:36:15;13.30;99.90
25512;DHT22;13414;44.534;18.700;2023-04-24T05:38:43;13.40;99.90
25512;DHT22;13414;44.534;18.700;2023-04-24T05:41:10;13.50;99.90
25512;DHT22;13414;44.534;18.700;2023-04-24T05:43:38;13.60;99.90
25512;DHT22;13414;44.534;18.700;2023-04-24T05:46:07;13.60;99.90
25512;DHT22;13414;44.534;18.700;2023-04-24T05:48:34;13.70;99.90
25512;DHT22;13414;44.534;18.700;2023-04-24T05:51:03;13.60;99.90
25512;DHT22;13414;44.534;18.700;2023-04-24T05:53:31;13.50;99.90
25512;DHT22;13414;44.534;18.700;2023-04-24T05:55:58;13.50;99.90
25512;DHT22;13414;44.534;18.700;2023-04-24T05:58:26;13.30;99.90
25512;DHT22;13414;44.534;18.700;2023-04-24T06:00:54;13.20;99.90
25512;DHT22;13414;44.534;18.700;2023-04-24T06:03:23;13.00;99.90
25512;DHT22;13414;44.534;18.700;2023-04-24T06:05:51;13.00;99.90
25512;DHT22;13414;44.534;18.700;2023-04-24T06:08:20;12.90;99.90
25512;DHT22;13414;44.534;18.700;2023-04-24T06:10:48;12.90;99.90
25512;DHT22;13414;44.534;18.700;2023-04-24T06:13:18;12.90;99.90
25512;DHT22;13414;44.534;18.700;2023-04-24T06:16:06;12.90;99.90
25512;DHT22;13414;44.534;18.700;2023-04-24T06:18:38;13.00;99.90
25512;DHT22;13414;44.534;18.700;2023-04-24T06:21:06;13.00;99.90
25512;DHT22;13414;44.534;18.700;2023-04-24T06:23:33;13.10;99.90
25512;DHT22;13414;44.534;18.700;2023-04-24T06:26:01;13.10;99.90
25512;DHT22;13414;44.534;18.700;2023-04-24T06:28:28;13.20;99.90
25512;DHT22;13414;44.534;18.700;2023-04-24T06:30:55;13.30;99.90
25512;DHT22;13414;44.534;18.700;2023-04-24T06:33:23;13.40;99.90
25512;DHT22;13414;44.534;18.700;2023-04-24T06:35:53;13.40;99.90
25512;DHT22;13414;44.534;18.700;2023-04-24T06:38:21;13.40;99.90
25512;DHT22;13414;44.534;18.700;2023-04-24T06:40:48;13.30;99.90
25512;DHT22;13414;44.534;18.700;2023-04-24T06:43:16;13.30;99.90
25512;DHT22;13414;44.534;18.700;2023-04-24T06:45:43;13.20;99.90
25512;DHT22;13414;44.534;18.700;2023-04-24T06:48:11;13.10;99.90
25512;DHT22;13414;44.534;18.700;2023-04-24T06:50:38;13.10;99.90
25512;DHT22;13414;44.534;18.700;2023-04-24T06:53:07;13.10;99.90
25512;DHT22;13414;44.534;18.700;2023-04-24T06:55:37;13.10;99.90
25512;DHT22;13414;44.534;18.700;2023-04-24T06:58:04;13.20;99.90
25512;DHT22;13414;44.534;18.700;2023-04-24T07:00:32;13.30;99.90
25512;DHT22;13414;44.534;18.700;2023-04-24T07:02:59;13.40;99.90
25512;DHT22;13414;44.534;18.700;2023-04-24T07:05:27;13.50;99.90
25512;DHT22;13414;44.534;18.700;2023-04-24T07:07:56;13.50;99.90
25512;DHT22;13414;44.534;18.700;2023-04-24T07:10:26;13.60;99.90
25512;DHT22;13414;44.534;18.700;2023-04-24T07:12:54;13.80;99.90
25512;DHT22;13414;44.534;18.700;2023-04-24T07:15:22;14.00;99.90
25512;DHT22;13414;44.534;18.700;2023-04-24T07:17:50;14.10;99.90
25512;DHT22;13414;44.534;18.700;2023-04-24T07:20:17;14.20;99.90
25512;DHT22;13414;44.534;18.700;2023-04-24T07:22:45;14.30;99.90
25512;DHT22;13414;44.534;18.700;2023-04-24T07:25:14;14.40;99.90
25512;DHT22;13414;44.534;18.700;2023-04-24T07:27:43;14.40;99.90
25512;DHT22;13414;44.534;18.700;2023-04-24T07:30:11;14.50;99.90
25512;DHT22;13414;44.534;18.700;2023-04-24T07:32:38;14.50;99.90
25512;DHT22;13414;44.534;18.700;2023-04-24T07:35:06;14.50;99.90
25512;DHT22;13414;44.534;18.700;2023-04-24T07:37:36;14.60;99.90
25512;DHT22;13414;44.534;18.700;2023-04-24T07:40:05;14.50;99.90
25512;DHT22;13414;44.534;18.700;2023-04-24T07:42:32;14.60;99.90
25512;DHT22;13414;44.534;18.700;2023-04-24T07:45:04;14.70;99.90
25512;DHT22;13414;44.534;18.700;2023-04-24T07:47:32;14.80;99.90
25512;DHT22;13414;44.534;18.700;2023-04-24T07:49:59;15.00;99.90
25512;DHT22;13414;44.534;18.700;2023-04-24T07:52:27;15.20;99.90
25512;DHT22;13414;44.534;18.700;2023-04-24T07:54:55;15.40;99.90
25512;DHT22;13414;44.534;18.700;2023-04-24T07:57:24;15.50;99.90
25512;DHT22;13414;44.534;18.700;2023-04-24T07:59:52;15.60;99.90
25512;DHT22;13414;44.534;18.700;2023-04-24T08:02:21;15.80;99.90
25512;DHT22;13414;44.534;18.700;2023-04-24T08:04:52;16.10;99.90
25512;DHT22;13414;44.534;18.700;2023-04-24T08:07:21;16.40;99.90
25512;DHT22;13414;44.534;18.700;2023-04-24T08:09:48;16.60;99.90
25512;DHT22;13414;44.534;18.700;2023-04-24T08:12:16;16.80;99.90
25512;DHT22;13414;44.534;18.700;2023-04-24T08:14:44;17.10;99.90
25512;DHT22;13414;44.534;18.700;2023-04-24T08:17:11;17.40;99.90
25512;DHT22;13414;44.534;18.700;2023-04-24T08:19:42;17.90;99.90
25512;DHT22;13414;44.534;18.700;2023-04-24T08:22:14;18.40;99.90
25512;DHT22;13414;44.534;18.700;2023-04-24T08:24:41;18.60;99.90
25512;DHT22;13414;44.534;18.700;2023-04-24T08:27:09;18.70;99.90
25512;DHT22;13414;44.534;18.700;2023-04-24T08:29:37;18.70;99.90
25512;DHT22;13414;44.534;18.700;2023-04-24T08:32:04;18.80;99.90
25512;DHT22;13414;44.534;18.700;2023-04-24T08:34:32;18.90;99.90
25512;DHT22;13414;44.534;18.700;2023-04-24T08:37:02;19.00;99.90
25512;DHT22;13414;44.534;18.700;2023-04-24T08:39:29;18.90;99.90
25512;DHT22;13414;44.534;18.700;2023-04-24T08:41:56;19.00;99.90
25512;DHT22;13414;44.534;18.700;2023-04-24T08:44:32;19.10;99.90
25512;DHT22;13414;44.534;18.700;2023-04-24T08:47:00;19.20;99.90
25512;DHT22;13414;44.534;18.700;2023-04-24T08:49:29;19.20;99.90
25512;DHT22;13414;44.534;18.700;2023-04-24T08:51:58;19.20;99.90
25512;DHT22;13414;44.534;18.700;2023-04-24T08:54:28;19.30;99.90
25512;DHT22;13414;44.534;18.700;2023-04-24T08:56:59;19.50;99.90
25512;DHT22;13414;44.534;18.700;2023-04-24T08:59:29;19.40;99.90
25512;DHT22;13414;44.534;18.700;2023-04-24T09:01:57;19.50;96.40
25512;DHT22;13414;44.534;18.700;2023-04-24T09:04:25;19.50;91.80
25512;DHT22;13414;44.534;18.700;2023-04-24T09:06:55;19.40;91.80
25512;DHT22;13414;44.534;18.700;2023-04-24T09:09:23;19.50;90.30
25512;DHT22;13414;44.534;18.700;2023-04-24T09:11:53;19.60;90.30
25512;DHT22;13414;44.534;18.700;2023-04-24T09:14:21;19.70;86.90
25512;DHT22;13414;44.534;18.700;2023-04-24T09:16:50;20.00;81.90
25512;DHT22;13414;44.534;18.700;2023-04-24T09:19:17;20.00;79.60
25512;DHT22;13414;44.534;18.700;2023-04-24T09:21:46;20.20;78.40
25512;DHT22;13414;44.534;18.700;2023-04-24T09:24:18;20.20;78.00
25512;DHT22;13414;44.534;18.700;2023-04-24T09:26:48;20.20;76.30
25512;DHT22;13414;44.534;18.700;2023-04-24T09:29:18;20.50;75.60
25512;DHT22;13414;44.534;18.700;2023-04-24T09:31:46;20.70;75.00
25512;DHT22;13414;44.534;18.700;2023-04-24T09:34:13;20.60;67.70
25512;DHT22;13414;44.534;18.700;2023-04-24T09:36:42;20.60;65.80
25512;DHT22;13414;44.534;18.700;2023-04-24T09:39:11;20.50;63.70
25512;DHT22;13414;44.534;18.700;2023-04-24T09:41:44;20.40;62.90
25512;DHT22;13414;44.534;18.700;2023-04-24T09:44:13;20.40;62.40
25512;DHT22;13414;44.534;18.700;2023-04-24T09:46:43;20.40;62.50
25512;DHT22;13414;44.534;18.700;2023-04-24T09:49:13;20.30;62.40
25512;DHT22;13414;44.534;18.700;2023-04-24T09:51:41;20.60;62.00
25512;DHT22;13414;44.534;18.700;2023-04-24T09:54:15;20.90;61.80
25512;DHT22;13414;44.534;18.700;2023-04-24T09:56:44;21.20;60.30
25512;DHT22;13414;44.534;18.700;2023-04-24T09:59:12;21.20;59.50
25512;DHT22;13414;44.534;18.700;2023-04-24T10:01:41;21.20;59.00
25512;DHT22;13414;44.534;18.700;2023-04-24T10:04:18;21.10;59.30
25512;DHT22;13414;44.534;18.700;2023-04-24T10:06:47;20.90;58.90
25512;DHT22;13414;44.534;18.700;2023-04-24T10:09:16;20.90;59.10
25512;DHT22;13414;44.534;18.700;2023-04-24T10:11:46;20.90;59.20
25512;DHT22;13414;44.534;18.700;2023-04-24T10:14:14;21.00;59.60
25512;DHT22;13414;44.534;18.700;2023-04-24T10:16:44;20.90;59.20
25512;DHT22;13414;44.534;18.700;2023-04-24T10:19:13;21.00;59.20
25512;DHT22;13414;44.534;18.700;2023-04-24T10:21:41;20.90;59.70
25512;DHT22;13414;44.534;18.700;2023-04-24T10:24:12;21.10;59.50
25512;DHT22;13414;44.534;18.700;2023-04-24T10:26:41;21.30;59.90
25512;DHT22;13414;44.534;18.700;2023-04-24T10:29:10;21.70;57.80
25512;DHT22;13414;44.534;18.700;2023-04-24T10:31:38;22.10;57.50
25512;DHT22;13414;44.534;18.700;2023-04-24T10:34:09;22.10;56.50
25512;DHT22;13414;44.534;18.700;2023-04-24T10:36:39;22.10;56.70
25512;DHT22;13414;44.534;18.700;2023-04-24T10:39:11;22.20;56.10
25512;DHT22;13414;44.534;18.700;2023-04-24T10:41:38;22.40;56.20
25512;DHT22;13414;44.534;18.700;2023-04-24T10:44:06;22.50;55.30
25512;DHT22;13414;44.534;18.700;2023-04-24T10:46:34;22.80;55.00
25512;DHT22;13414;44.534;18.700;2023-04-24T10:49:04;22.80;55.80
25512;DHT22;13414;44.534;18.700;2023-04-24T10:51:48;23.20;55.00
25512;DHT22;13414;44.534;18.700;2023-04-24T10:54:23;23.60;54.00
25512;DHT22;13414;44.534;18.700;2023-04-24T10:56:51;23.60;53.40
25512;DHT22;13414;44.534;18.700;2023-04-24T10:59:24;23.60;52.30
25512;DHT22;13414;44.534;18.700;2023-04-24T11:01:55;23.40;53.00
25512;DHT22;13414;44.534;18.700;2023-04-24T11:04:29;23.20;53.50
25512;DHT22;13414;44.534;18.700;2023-04-24T11:06:59;23.40;53.10
25512;DHT22;13414;44.534;18.700;2023-04-24T11:09:27;23.50;53.20
25512;DHT22;13414;44.534;18.700;2023-04-24T11:12:03;23.60;53.00
25512;DHT22;13414;44.534;18.700;2023-04-24T11:15:01;23.40;53.20
25512;DHT22;13414;44.534;18.700;2023-04-24T11:17:32;23.70;52.40
25512;DHT22;13414;44.534;18.700;2023-04-24T11:20:01;23.60;51.40
25512;DHT22;13414;44.534;18.700;2023-04-24T11:22:33;23.90;50.40
25512;DHT22;13414;44.534;18.700;2023-04-24T11:25:01;23.70;48.70
25512;DHT22;13414;44.534;18.700;2023-04-24T11:27:34;23.70;49.10
25512;DHT22;13414;44.534;18.700;2023-04-24T11:30:06;23.40;49.50
25512;DHT22;13414;44.534;18.700;2023-04-24T11:32:36;23.40;49.00
25512;DHT22;13414;44.534;18.700;2023-04-24T11:35:06;23.70;49.30
25512;DHT22;13414;44.534;18.700;2023-04-24T11:37:36;23.80;49.40
25512;DHT22;13414;44.534;18.700;2023-04-24T11:40:05;23.90;48.50
25512;DHT22;13414;44.534;18.700;2023-04-24T11:42:34;24.10;48.30
25512;DHT22;13414;44.534;18.700;2023-04-24T11:45:02;24.10;46.60
25512;DHT22;13414;44.534;18.700;2023-04-24T11:47:34;24.20;46.80
25512;DHT22;13414;44.534;18.700;2023-04-24T11:50:02;24.10;48.00
25512;DHT22;13414;44.534;18.700;2023-04-24T11:52:30;24.10;47.10
25512;DHT22;13414;44.534;18.700;2023-04-24T11:55:00;24.30;46.40
25512;DHT22;13414;44.534;18.700;2023-04-24T11:57:27;24.20;46.30
25512;DHT22;13414;44.534;18.700;2023-04-24T11:59:59;24.10;45.90
25512;DHT22;13414;44.534;18.700;2023-04-24T12:02:27;24.10;45.70
25512;DHT22;13414;44.534;18.700;2023-04-24T12:04:54;24.00;44.60
25512;DHT22;13414;44.534;18.700;2023-04-24T12:07:23;23.90;44.00
25512;DHT22;13414;44.534;18.700;2023-04-24T12:09:59;23.80;43.10
25512;DHT22;13414;44.534;18.700;2023-04-24T12:12:27;23.70;42.90
25512;DHT22;13414;44.534;18.700;2023-04-24T12:14:55;23.80;43.10
25512;DHT22;13414;44.534;18.700;2023-04-24T12:17:28;23.90;42.80
25512;DHT22;13414;44.534;18.700;2023-04-24T12:19:59;23.90;43.00
25512;DHT22;13414;44.534;18.700;2023-04-24T12:22:28;24.10;42.90
25512;DHT22;13414;44.534;18.700;2023-04-24T12:25:11;24.00;41.50
25512;DHT22;13414;44.534;18.700;2023-04-24T12:27:38;23.90;41.50
25512;DHT22;13414;44.534;18.700;2023-04-24T12:30:10;23.90;41.20
25512;DHT22;13414;44.534;18.700;2023-04-24T12:32:41;23.60;41.30
25512;DHT22;13414;44.534;18.700;2023-04-24T12:35:09;23.60;42.00
25512;DHT22;13414;44.534;18.700;2023-04-24T12:37:37;23.80;41.90
25512;DHT22;13414;44.534;18.700;2023-04-24T12:40:07;23.90;41.90
25512;DHT22;13414;44.534;18.700;2023-04-24T12:42:42;23.60;41.30
25512;DHT22;13414;44.534;18.700;2023-04-24T12:45:11;23.70;41.40
25512;DHT22;13414;44.534;18.700;2023-04-24T12:47:39;24.00;41.50
25512;DHT22;13414;44.534;18.700;2023-04-24T12:50:10;23.90;41.20
25512;DHT22;13414;44.534;18.700;2023-04-24T12:52:38;24.10;41.20
25512;DHT22;13414;44.534;18.700;2023-04-24T12:55:06;23.90;40.60
25512;DHT22;13414;44.534;18.700;2023-04-24T12:57:37;23.70;40.70
25512;DHT22;13414;44.534;18.700;2023-04-24T13:00:07;23.70;41.10
25512;DHT22;13414;44.534;18.700;2023-04-24T13:02:35;23.70;41.10
25512;DHT22;13414;44.534;18.700;2023-04-24T13:05:02;23.60;41.20
25512;DHT22;13414;44.534;18.700;2023-04-24T13:07:30;23.10;41.30
25512;DHT22;13414;44.534;18.700;2023-04-24T13:09:57;22.90;41.60
25512;DHT22;13414;44.534;18.700;2023-04-24T13:12:25;22.70;42.00
25512;DHT22;13414;44.534;18.700;2023-04-24T13:14:54;22.80;42.20
25512;DHT22;13414;44.534;18.700;2023-04-24T13:17:22;22.90;42.20
25512;DHT22;13414;44.534;18.700;2023-04-24T13:19:51;22.80;42.40
25512;DHT22;13414;44.534;18.700;2023-04-24T13:22:19;22.90;42.00
25512;DHT22;13414;44.534;18.700;2023-04-24T13:24:46;23.00;42.50
25512;DHT22;13414;44.534;18.700;2023-04-24T13:27:15;23.10;42.00
25512;DHT22;13414;44.534;18.700;2023-04-24T13:29:42;23.10;41.70
25512;DHT22;13414;44.534;18.700;2023-04-24T13:32:11;23.00;41.40
25512;DHT22;13414;44.534;18.700;2023-04-24T13:34:39;23.10;41.90
25512;DHT22;13414;44.534;18.700;2023-04-24T13:37:06;23.10;41.60
25512;DHT22;13414;44.534;18.700;2023-04-24T13:39:34;23.10;41.30
25512;DHT22;13414;44.534;18.700;2023-04-24T13:42:03;23.10;41.40
25512;DHT22;13414;44.534;18.700;2023-04-24T13:44:30;23.30;41.80
25512;DHT22;13414;44.534;18.700;2023-04-24T13:46:58;23.20;41.70
25512;DHT22;13414;44.534;18.700;2023-04-24T13:49:28;23.10;41.90
25512;DHT22;13414;44.534;18.700;2023-04-24T13:51:56;23.10;41.90
25512;DHT22;13414;44.534;18.700;2023-04-24T13:54:23;22.90;42.50
25512;DHT22;13414;44.534;18.700;2023-04-24T13:56:51;22.70;43.30
25512;DHT22;13414;44.534;18.700;2023-04-24T13:59:19;22.60;43.00
25512;DHT22;13414;44.534;18.700;2023-04-24T14:01:47;22.70;43.50
25512;DHT22;13414;44.534;18.700;2023-04-24T14:04:16;22.50;43.20
25512;DHT22;13414;44.534;18.700;2023-04-24T14:06:45;22.30;43.60
25512;DHT22;13414;44.534;18.700;2023-04-24T14:09:12;22.30;44.10
25512;DHT22;13414;44.534;18.700;2023-04-24T14:11:40;22.30;44.20
25512;DHT22;13414;44.534;18.700;2023-04-24T14:14:07;22.30;44.10
25512;DHT22;13414;44.534;18.700;2023-04-24T14:16:35;22.50;44.70
25512;DHT22;13414;44.534;18.700;2023-04-24T14:19:04;22.60;43.70
25512;DHT22;13414;44.534;18.700;2023-04-24T14:21:32;22.80;43.50
25512;DHT22;13414;44.534;18.700;2023-04-24T14:24:02;22.70;43.20
25512;DHT22;13414;44.534;18.700;2023-04-24T14:26:29;22.80;43.20
25512;DHT22;13414;44.534;18.700;2023-04-24T14:28:56;22.70;43.40
25512;DHT22;13414;44.534;18.700;2023-04-24T14:31:24;22.50;43.70
25512;DHT22;13414;44.534;18.700;2023-04-24T14:33:52;22.50;44.10
25512;DHT22;13414;44.534;18.700;2023-04-24T14:36:20;22.50;44.40
25512;DHT22;13414;44.534;18.700;2023-04-24T14:38:48;22.40;44.40
25512;DHT22;13414;44.534;18.700;2023-04-24T14:41:17;22.40;44.60
25512;DHT22;13414;44.534;18.700;2023-04-24T14:43:45;22.40;44.00
25512;DHT22;13414;44.534;18.700;2023-04-24T14:46:12;22.70;43.90
25512;DHT22;13414;44.534;18.700;2023-04-24T14:48:40;22.70;43.50
25512;DHT22;13414;44.534;18.700;2023-04-24T14:51:07;22.80;42.10
25512;DHT22;13414;44.534;18.700;2023-04-24T14:53:35;22.80;41.60
25512;DHT22;13414;44.534;18.700;2023-04-24T14:56:02;22.70;42.40
25512;DHT22;13414;44.534;18.700;2023-04-24T14:58:31;22.60;42.40
25512;DHT22;13414;44.534;18.700;2023-04-24T15:00:58;22.60;42.50
25512;DHT22;13414;44.534;18.700;2023-04-24T15:03:26;22.40;42.60
25512;DHT22;13414;44.534;18.700;2023-04-24T15:05:55;22.20;43.20
25512;DHT22;13414;44.534;18.700;2023-04-24T15:08:22;21.90;43.50
25512;DHT22;13414;44.534;18.700;2023-04-24T15:10:50;21.70;43.70
25512;DHT22;13414;44.534;18.700;2023-04-24T15:13:17;21.60;44.30
25512;DHT22;13414;44.534;18.700;2023-04-24T15:15:47;21.60;44.30
25512;DHT22;13414;44.534;18.700;2023-04-24T15:18:15;21.50;44.60
25512;DHT22;13414;44.534;18.700;2023-04-24T15:20:42;21.50;44.80
25512;DHT22;13414;44.534;18.700;2023-04-24T15:23:10;21.30;44.80
25512;DHT22;13414;44.534;18.700;2023-04-24T15:25:38;21.10;45.20
25512;DHT22;13414;44.534;18.700;2023-04-24T15:28:05;21.10;45.10
25512;DHT22;13414;44.534;18.700;2023-04-24T15:30:33;21.10;44.80